sensor_id;sensor_type;location;lat;lon;timestamp;temperature;humidity
4374;DHT22;2201;51.100;6.814;2022-09-09T00:01:26;18.20;98.20
4374;DHT22;2201;51.100;6.814;2022-09-09T00:04:03;18.20;98.20
4374;DHT22;2201;51.100;6.814;2022-09-09T00:06:34;18.10;98.20
4374;DHT22;2201;51.100;6.814;2022-09-09T00:09:08;18.10;98.20
4374;DHT22;2201;51.100;6.814;2022-09-09T00:11:43;18.10;98.20
4374;DHT22;2201;51.100;6.814;2022-09-09T00:14:18;18.10;98.20
4374;DHT22;2201;51.100;6.814;2022-09-09T00:16:57;18.10;98.20
4374;DHT22;2201;51.100;6.814;2022-09-09T00:19:38;18.00;98.20
4374;DHT22;2201;51.100;6.814;2022-09-09T00:22:18;17.90;98.20
4374;DHT22;2201;51.100;6.814;2022-09-09T00:25:10;17.90;98.20
4374;DHT22;2201;51.100;6.814;2022-09-09T00:30:56;17.90;98.20
4374;DHT22;2201;51.100;6.814;2022-09-09T00:33:28;17.90;98.20
4374;DHT22;2201;51.100;6.814;2022-09-09T00:39:30;17.90;98.20
4374;DHT22;2201;51.100;6.814;2022-09-09T00:42:23;18.00;98.20
4374;DHT22;2201;51.100;6.814;2022-09-09T00:45:11;18.00;98.20
4374;DHT22;2201;51.100;6.814;2022-09-09T00:47:50;18.00;98.20
4374;DHT22;2201;51.100;6.814;2022-09-09T02:50:29;17.20;98.20
4374;DHT22;2201;51.100;6.814;2022-09-09T03:15:20;17.20;98.20
4374;DHT22;2201;51.100;6.814;2022-09-09T03:17:57;17.20;98.20
4374;DHT22;2201;51.100;6.814;2022-09-09T03:20:39;17.20;98.20
4374;DHT22;2201;51.100;6.814;2022-09-09T03:23:35;17.10;98.20
4374;DHT22;2201;51.100;6.814;2022-09-09T03:26:19;17.20;98.20
4374;DHT22;2201;51.100;6.814;2022-09-09T03:29:20;17.20;98.20
4374;DHT22;2201;51.100;6.814;2022-09-09T03:31:56;17.20;98.20
4374;DHT22;2201;51.100;6.814;2022-09-09T03:37:49;17.20;98.20
4374;DHT22;2201;51.100;6.814;2022-09-09T03:40:25;17.20;98.20
4374;DHT22;2201;51.100;6.814;2022-09-09T03:42:56;17.20;98.20
4374;DHT22;2201;51.100;6.814;2022-09-09T03:45:36;17.20;98.20
4374;DHT22;2201;51.100;6.814;2022-09-09T03:50:53;17.20;98.20
4374;DHT22;2201;51.100;6.814;2022-09-09T03:53:24;17.20;98.20
4374;DHT22;2201;51.100;6.814;2022-09-09T03:55:55;17.20;98.20
4374;DHT22;2201;51.100;6.814;2022-09-09T04:01:21;17.30;98.20
4374;DHT22;2201;51.100;6.814;2022-09-09T04:03:52;17.30;98.20
4374;DHT22;2201;51.100;6.814;2022-09-09T04:06:22;17.30;98.20
4374;DHT22;2201;51.100;6.814;2022-09-09T04:08:50;17.30;98.20
4374;DHT22;2201;51.100;6.814;2022-09-09T04:11:30;17.30;98.20
4374;DHT22;2201;51.100;6.814;2022-09-09T04:17:03;17.30;98.20
4374;DHT22;2201;51.100;6.814;2022-09-09T04:23:25;17.40;98.20
4374;DHT22;2201;51.100;6.814;2022-09-09T04:29:52;17.40;98.20
4374;DHT22;2201;51.100;6.814;2022-09-09T04:32:28;17.40;98.20
4374;DHT22;2201;51.100;6.814;2022-09-09T04:34:59;17.40;98.20
4374;DHT22;2201;51.100;6.814;2022-09-09T04:37:30;17.40;98.20
4374;DHT22;2201;51.100;6.814;2022-09-09T04:43:47;17.40;98.20
4374;DHT22;2201;51.100;6.814;2022-09-09T04:46:20;17.50;98.20
4374;DHT22;2201;51.100;6.814;2022-09-09T04:49:02;17.50;98.20
4374;DHT22;2201;51.100;6.814;2022-09-09T04:51:54;17.50;98.20
4374;DHT22;2201;51.100;6.814;2022-09-09T04:54:46;17.50;98.20
4374;DHT22;2201;51.100;6.814;2022-09-09T04:57:55;17.50;98.20
4374;DHT22;2201;51.100;6.814;2022-09-09T05:01:06;17.50;98.20
4374;DHT22;2201;51.100;6.814;2022-09-09T05:03:36;17.50;98.20
4374;DHT22;2201;51.100;6.814;2022-09-09T05:06:08;17.50;98.20
4374;DHT22;2201;51.100;6.814;2022-09-09T05:08:37;17.50;98.20
4374;DHT22;2201;51.100;6.814;2022-09-09T05:11:19;17.50;98.20
4374;DHT22;2201;51.100;6.814;2022-09-09T05:13:52;17.60;98.20
4374;DHT22;2201;51.100;6.814;2022-09-09T05:16:40;17.50;98.20
4374;DHT22;2201;51.100;6.814;2022-09-09T05:19:22;17.60;98.20
4374;DHT22;2201;51.100;6.814;2022-09-09T05:21:56;17.50;98.20
4374;DHT22;2201;51.100;6.814;2022-09-09T05:24:28;17.50;98.20
4374;DHT22;2201;51.100;6.814;2022-09-09T05:26:59;17.50;98.20
4374;DHT22;2201;51.100;6.814;2022-09-09T05:32:33;17.50;98.20
4374;DHT22;2201;51.100;6.814;2022-09-09T05:35:03;17.50;98.20
4374;DHT22;2201;51.100;6.814;2022-09-09T05:37:41;17.60;98.20
4374;DHT22;2201;51.100;6.814;2022-09-09T05:40:10;17.60;98.20
4374;DHT22;2201;51.100;6.814;2022-09-09T05:42:38;17.60;98.20
4374;DHT22;2201;51.100;6.814;2022-09-09T05:45:10;17.60;98.20
4374;DHT22;2201;51.100;6.814;2022-09-09T05:47:44;17.70;98.20
4374;DHT22;2201;51.100;6.814;2022-09-09T05:50:11;17.70;98.20
4374;DHT22;2201;51.100;6.814;2022-09-09T05:52:42;17.70;98.20
4374;DHT22;2201;51.100;6.814;2022-09-09T05:55:31;17.70;98.20
4374;DHT22;2201;51.100;6.814;2022-09-09T05:58:02;17.70;98.20
4374;DHT22;2201;51.100;6.814;2022-09-09T06:01:00;17.80;98.20
4374;DHT22;2201;51.100;6.814;2022-09-09T06:03:32;17.80;98.20
4374;DHT22;2201;51.100;6.814;2022-09-09T06:06:01;17.80;98.20
4374;DHT22;2201;51.100;6.814;2022-09-09T06:08:34;17.80;98.20
4374;DHT22;2201;51.100;6.814;2022-09-09T06:11:03;17.90;98.20
4374;DHT22;2201;51.100;6.814;2022-09-09T06:13:35;17.90;98.20
4374;DHT22;2201;51.100;6.814;2022-09-09T06:16:11;18.00;98.20
4374;DHT22;2201;51.100;6.814;2022-09-09T06:18:40;18.00;98.20
4374;DHT22;2201;51.100;6.814;2022-09-09T06:21:13;18.00;98.20
4374;DHT22;2201;51.100;6.814;2022-09-09T06:24:06;18.00;98.20
4374;DHT22;2201;51.100;6.814;2022-09-09T06:26:42;18.00;98.20
4374;DHT22;2201;51.100;6.814;2022-09-09T06:29:12;18.10;98.20
4374;DHT22;2201;51.100;6.814;2022-09-09T06:31:40;18.10;98.20
4374;DHT22;2201;51.100;6.814;2022-09-09T06:34:11;18.10;98.20
4374;DHT22;2201;51.100;6.814;2022-09-09T06:36:39;18.10;98.20
4374;DHT22;2201;51.100;6.814;2022-09-09T06:39:09;18.10;98.20
4374;DHT22;2201;51.100;6.814;2022-09-09T06:41:40;18.20;98.20
4374;DHT22;2201;51.100;6.814;2022-09-09T06:44:48;18.30;98.20
4374;DHT22;2201;51.100;6.814;2022-09-09T06:47:29;18.30;98.20
4374;DHT22;2201;51.100;6.814;2022-09-09T06:49:57;18.40;98.20
4374;DHT22;2201;51.100;6.814;2022-09-09T06:55:53;18.60;98.20
4374;DHT22;2201;51.100;6.814;2022-09-09T06:58:23;18.70;98.20
4374;DHT22;2201;51.100;6.814;2022-09-09T07:00:53;18.80;98.20
4374;DHT22;2201;51.100;6.814;2022-09-09T07:03:48;18.90;98.20
4374;DHT22;2201;51.100;6.814;2022-09-09T07:06:22;19.00;98.20
4374;DHT22;2201;51.100;6.814;2022-09-09T07:08:50;19.10;98.20
4374;DHT22;2201;51.100;6.814;2022-09-09T07:11:21;19.10;98.20
4374;DHT22;2201;51.100;6.814;2022-09-09T07:13:50;19.10;98.20
4374;DHT22;2201;51.100;6.814;2022-09-09T07:16:29;19.20;98.20
4374;DHT22;2201;51.100;6.814;2022-09-09T07:19:03;19.20;98.20
4374;DHT22;2201;51.100;6.814;2022-09-09T07:21:31;19.20;98.20
4374;DHT22;2201;51.100;6.814;2022-09-09T07:23:59;19.30;98.20
4374;DHT22;2201;51.100;6.814;2022-09-09T07:26:30;19.30;98.20
4374;DHT22;2201;51.100;6.814;2022-09-09T07:29:00;19.30;98.20
4374;DHT22;2201;51.100;6.814;2022-09-09T07:31:34;19.40;98.20
4374;DHT22;2201;51.100;6.814;2022-09-09T07:34:05;19.50;98.20
4374;DHT22;2201;51.100;6.814;2022-09-09T07:36:34;19.60;98.10
4374;DHT22;2201;51.100;6.814;2022-09-09T07:39:09;19.70;98.20
4374;DHT22;2201;51.100;6.814;2022-09-09T07:41:42;19.90;97.60
4374;DHT22;2201;51.100;6.814;2022-09-09T07:44:22;20.00;97.70
4374;DHT22;2201;51.100;6.814;2022-09-09T07:47:04;20.10;95.90
4374;DHT22;2201;51.100;6.814;2022-09-09T07:49:41;20.20;95.40
4374;DHT22;2201;51.100;6.814;2022-09-09T07:52:17;20.20;95.10
4374;DHT22;2201;51.100;6.814;2022-09-09T07:54:55;20.20;95.40
4374;DHT22;2201;51.100;6.814;2022-09-09T07:57:29;20.20;95.30
4374;DHT22;2201;51.100;6.814;2022-09-09T07:59:57;20.30;95.20
4374;DHT22;2201;51.100;6.814;2022-09-09T08:02:56;20.40;95.00
4374;DHT22;2201;51.100;6.814;2022-09-09T08:05:28;20.40;95.10
4374;DHT22;2201;51.100;6.814;2022-09-09T08:08:02;20.50;93.70
4374;DHT22;2201;51.100;6.814;2022-09-09T08:10:30;20.50;93.30
4374;DHT22;2201;51.100;6.814;2022-09-09T08:13:02;20.40;93.80
4374;DHT22;2201;51.100;6.814;2022-09-09T08:19:26;20.50;94.40
4374;DHT22;2201;51.100;6.814;2022-09-09T08:34:59;20.90;90.40
4374;DHT22;2201;51.100;6.814;2022-09-09T08:35:33;21.00;90.80
4374;DHT22;2201;51.100;6.814;2022-09-09T08:38:01;21.10;90.10
4374;DHT22;2201;51.100;6.814;2022-09-09T08:40:49;21.10;89.60
4374;DHT22;2201;51.100;6.814;2022-09-09T08:43:38;21.20;88.50
4374;DHT22;2201;51.100;6.814;2022-09-09T08:46:28;21.20;88.70
4374;DHT22;2201;51.100;6.814;2022-09-09T08:59:27;21.10;88.10
4374;DHT22;2201;51.100;6.814;2022-09-09T09:02:08;21.00;87.30
4374;DHT22;2201;51.100;6.814;2022-09-09T09:12:15;21.10;86.90
4374;DHT22;2201;51.100;6.814;2022-09-09T09:15:24;21.10;86.70
4374;DHT22;2201;51.100;6.814;2022-09-09T09:17:59;21.10;86.20
4374;DHT22;2201;51.100;6.814;2022-09-09T09:31:04;21.00;87.20
4374;DHT22;2201;51.100;6.814;2022-09-09T09:33:54;21.00;86.20
4374;DHT22;2201;51.100;6.814;2022-09-09T09:37:14;21.10;86.60
4374;DHT22;2201;51.100;6.814;2022-09-09T09:40:34;21.20;87.10
4374;DHT22;2201;51.100;6.814;2022-09-09T09:43:20;21.30;86.80
4374;DHT22;2201;51.100;6.814;2022-09-09T09:47:04;21.50;87.00
4374;DHT22;2201;51.100;6.814;2022-09-09T09:49:13;21.70;85.50
4374;DHT22;2201;51.100;6.814;2022-09-09T09:51:43;22.10;86.40
4374;DHT22;2201;51.100;6.814;2022-09-09T09:54:30;22.50;83.10
4374;DHT22;2201;51.100;6.814;2022-09-09T09:57:09;22.50;81.50
4374;DHT22;2201;51.100;6.814;2022-09-09T09:59:42;22.50;82.90
4374;DHT22;2201;51.100;6.814;2022-09-09T10:02:15;22.40;83.60
4374;DHT22;2201;51.100;6.814;2022-09-09T10:04:45;22.40;82.80
4374;DHT22;2201;51.100;6.814;2022-09-09T10:07:18;22.50;85.40
4374;DHT22;2201;51.100;6.814;2022-09-09T10:09:53;22.90;85.00
4374;DHT22;2201;51.100;6.814;2022-09-09T10:12:46;23.30;82.40
4374;DHT22;2201;51.100;6.814;2022-09-09T10:15:31;23.30;82.30
4374;DHT22;2201;51.100;6.814;2022-09-09T10:18:19;23.30;82.70
4374;DHT22;2201;51.100;6.814;2022-09-09T10:20:58;23.30;82.50
4374;DHT22;2201;51.100;6.814;2022-09-09T10:23:46;23.40;82.80
4374;DHT22;2201;51.100;6.814;2022-09-09T10:26:32;23.60;82.90
4374;DHT22;2201;51.100;6.814;2022-09-09T10:29:23;24.00;81.00
4374;DHT22;2201;51.100;6.814;2022-09-09T10:32:33;24.40;80.00
4374;DHT22;2201;51.100;6.814;2022-09-09T10:35:10;24.50;77.60
4374;DHT22;2201;51.100;6.814;2022-09-09T10:38:03;24.30;78.10
4374;DHT22;2201;51.100;6.814;2022-09-09T10:44:06;24.00;80.00
4374;DHT22;2201;51.100;6.814;2022-09-09T10:46:50;24.00;80.00
4374;DHT22;2201;51.100;6.814;2022-09-09T10:49:30;24.00;78.60
4374;DHT22;2201;51.100;6.814;2022-09-09T10:52:08;23.80;78.70
4374;DHT22;2201;51.100;6.814;2022-09-09T10:54:52;23.70;80.60
4374;DHT22;2201;51.100;6.814;2022-09-09T10:57:28;23.60;79.80
4374;DHT22;2201;51.100;6.814;2022-09-09T11:00:01;23.40;80.50
4374;DHT22;2201;51.100;6.814;2022-09-09T11:02:42;23.30;81.00
4374;DHT22;2201;51.100;6.814;2022-09-09T11:05:25;23.20;80.60
4374;DHT22;2201;51.100;6.814;2022-09-09T11:07:57;23.00;83.30
4374;DHT22;2201;51.100;6.814;2022-09-09T11:10:36;22.80;85.20
4374;DHT22;2201;51.100;6.814;2022-09-09T11:13:24;22.60;87.10
4374;DHT22;2201;51.100;6.814;2022-09-09T11:16:16;22.40;87.30
4374;DHT22;2201;51.100;6.814;2022-09-09T11:18:57;22.20;85.90
4374;DHT22;2201;51.100;6.814;2022-09-09T11:21:30;22.10;84.90
4374;DHT22;2201;51.100;6.814;2022-09-09T11:24:02;21.90;84.00
4374;DHT22;2201;51.100;6.814;2022-09-09T11:26:38;21.70;84.60
4374;DHT22;2201;51.100;6.814;2022-09-09T11:32:12;21.50;86.90
4374;DHT22;2201;51.100;6.814;2022-09-09T11:35:12;21.50;87.40
4374;DHT22;2201;51.100;6.814;2022-09-09T11:38:12;21.70;87.20
4374;DHT22;2201;51.100;6.814;2022-09-09T11:40:55;22.00;85.70
4374;DHT22;2201;51.100;6.814;2022-09-09T11:43:31;22.10;84.90
4374;DHT22;2201;51.100;6.814;2022-09-09T11:46:02;22.30;85.50
4374;DHT22;2201;51.100;6.814;2022-09-09T11:48:34;22.40;83.90
4374;DHT22;2201;51.100;6.814;2022-09-09T11:51:28;22.40;83.80
4374;DHT22;2201;51.100;6.814;2022-09-09T11:53:57;22.30;84.10
4374;DHT22;2201;51.100;6.814;2022-09-09T11:56:30;22.30;84.00
4374;DHT22;2201;51.100;6.814;2022-09-09T11:59:05;22.20;84.40
4374;DHT22;2201;51.100;6.814;2022-09-09T12:01:48;22.20;84.90
4374;DHT22;2201;51.100;6.814;2022-09-09T12:04:35;22.10;85.40
4374;DHT22;2201;51.100;6.814;2022-09-09T12:07:23;21.90;86.10
4374;DHT22;2201;51.100;6.814;2022-09-09T12:09:57;21.80;89.10
4374;DHT22;2201;51.100;6.814;2022-09-09T12:15:53;21.50;93.50
4374;DHT22;2201;51.100;6.814;2022-09-09T12:18:24;21.60;93.10
4374;DHT22;2201;51.100;6.814;2022-09-09T12:24:35;22.20;94.50
4374;DHT22;2201;51.100;6.814;2022-09-09T12:27:16;22.60;94.90
4374;DHT22;2201;51.100;6.814;2022-09-09T12:29:53;22.80;90.50
4374;DHT22;2201;51.100;6.814;2022-09-09T12:32:28;22.90;90.20
4374;DHT22;2201;51.100;6.814;2022-09-09T12:35:13;23.00;88.50
4374;DHT22;2201;51.100;6.814;2022-09-09T12:38:01;23.10;89.70
4374;DHT22;2201;51.100;6.814;2022-09-09T12:40:37;23.20;90.00
4374;DHT22;2201;51.100;6.814;2022-09-09T12:43:19;23.20;87.90
4374;DHT22;2201;51.100;6.814;2022-09-09T12:45:59;23.10;87.80
4374;DHT22;2201;51.100;6.814;2022-09-09T12:48:42;23.00;88.20
4374;DHT22;2201;51.100;6.814;2022-09-09T12:51:57;22.60;91.50
4374;DHT22;2201;51.100;6.814;2022-09-09T12:54:36;21.80;95.90
4374;DHT22;2201;51.100;6.814;2022-09-09T12:57:14;21.40;97.90
4374;DHT22;2201;51.100;6.814;2022-09-09T12:59:44;21.60;98.20
4374;DHT22;2201;51.100;6.814;2022-09-09T13:02:19;22.10;98.20
4374;DHT22;2201;51.100;6.814;2022-09-09T13:04:53;22.60;98.20
4374;DHT22;2201;51.100;6.814;2022-09-09T13:07:34;22.90;98.20
4374;DHT22;2201;51.100;6.814;2022-09-09T13:13:54;23.30;93.70
4374;DHT22;2201;51.100;6.814;2022-09-09T13:16:30;23.00;90.80
4374;DHT22;2201;51.100;6.814;2022-09-09T13:19:08;22.90;93.40
4374;DHT22;2201;51.100;6.814;2022-09-09T13:21:56;23.00;93.90
4374;DHT22;2201;51.100;6.814;2022-09-09T13:24:28;23.00;91.70
4374;DHT22;2201;51.100;6.814;2022-09-09T13:27:01;22.90;90.30
4374;DHT22;2201;51.100;6.814;2022-09-09T13:29:53;22.80;90.00
4374;DHT22;2201;51.100;6.814;2022-09-09T13:32:26;22.90;91.60
4374;DHT22;2201;51.100;6.814;2022-09-09T13:34:56;23.20;92.30
4374;DHT22;2201;51.100;6.814;2022-09-09T13:37:33;23.50;89.80
4374;DHT22;2201;51.100;6.814;2022-09-09T13:40:06;23.70;90.40
4374;DHT22;2201;51.100;6.814;2022-09-09T13:42:39;24.00;88.60
4374;DHT22;2201;51.100;6.814;2022-09-09T13:45:18;24.20;87.30
4374;DHT22;2201;51.100;6.814;2022-09-09T13:48:08;24.20;87.80
4374;DHT22;2201;51.100;6.814;2022-09-09T13:50:42;24.40;85.30
4374;DHT22;2201;51.100;6.814;2022-09-09T13:53:10;24.70;84.90
4374;DHT22;2201;51.100;6.814;2022-09-09T13:55:42;25.00;84.90
4374;DHT22;2201;51.100;6.814;2022-09-09T13:58:16;25.20;83.50
4374;DHT22;2201;51.100;6.814;2022-09-09T14:00:55;25.40;82.20
4374;DHT22;2201;51.100;6.814;2022-09-09T14:03:24;25.50;81.80
4374;DHT22;2201;51.100;6.814;2022-09-09T14:05:51;25.40;80.00
4374;DHT22;2201;51.100;6.814;2022-09-09T14:08:25;25.30;80.60
4374;DHT22;2201;51.100;6.814;2022-09-09T14:11:16;25.30;81.20
4374;DHT22;2201;51.100;6.814;2022-09-09T14:14:09;25.30;81.90
4374;DHT22;2201;51.100;6.814;2022-09-09T14:16:44;25.40;81.80
4374;DHT22;2201;51.100;6.814;2022-09-09T14:19:12;25.30;81.90
4374;DHT22;2201;51.100;6.814;2022-09-09T14:21:50;25.30;81.20
4374;DHT22;2201;51.100;6.814;2022-09-09T14:24:26;25.20;82.10
4374;DHT22;2201;51.100;6.814;2022-09-09T14:26:54;25.00;82.00
4374;DHT22;2201;51.100;6.814;2022-09-09T14:29:23;24.80;82.40
4374;DHT22;2201;51.100;6.814;2022-09-09T14:32:07;24.50;81.40
4374;DHT22;2201;51.100;6.814;2022-09-09T14:34:42;24.20;81.40
4374;DHT22;2201;51.100;6.814;2022-09-09T14:37:18;23.90;82.30
4374;DHT22;2201;51.100;6.814;2022-09-09T14:39:49;23.60;81.80
4374;DHT22;2201;51.100;6.814;2022-09-09T14:42:20;23.40;83.80
4374;DHT22;2201;51.100;6.814;2022-09-09T14:44:51;23.20;85.60
4374;DHT22;2201;51.100;6.814;2022-09-09T14:47:20;22.90;87.40
4374;DHT22;2201;51.100;6.814;2022-09-09T14:50:18;22.70;90.30
4374;DHT22;2201;51.100;6.814;2022-09-09T14:53:23;22.60;91.00
4374;DHT22;2201;51.100;6.814;2022-09-09T14:56:24;22.50;92.30
4374;DHT22;2201;51.100;6.814;2022-09-09T14:59:21;22.50;91.80
4374;DHT22;2201;51.100;6.814;2022-09-09T15:01:53;22.40;92.90
4374;DHT22;2201;51.100;6.814;2022-09-09T15:04:36;22.20;91.20
4374;DHT22;2201;51.100;6.814;2022-09-09T15:07:04;22.00;90.80
4374;DHT22;2201;51.100;6.814;2022-09-09T15:09:32;21.70;91.60
4374;DHT22;2201;51.100;6.814;2022-09-09T15:12:00;21.60;91.90
4374;DHT22;2201;51.100;6.814;2022-09-09T15:14:28;21.60;91.50
4374;DHT22;2201;51.100;6.814;2022-09-09T15:16:56;21.60;91.70
4374;DHT22;2201;51.100;6.814;2022-09-09T15:19:24;21.60;92.10
4374;DHT22;2201;51.100;6.814;2022-09-09T15:21:53;21.70;91.90
4374;DHT22;2201;51.100;6.814;2022-09-09T15:24:21;21.80;92.10
4374;DHT22;2201;51.100;6.814;2022-09-09T15:26:49;21.80;91.60
4374;DHT22;2201;51.100;6.814;2022-09-09T15:29:20;21.90;91.30
4374;DHT22;2201;51.100;6.814;2022-09-09T15:32:02;21.80;91.20
4374;DHT22;2201;51.100;6.814;2022-09-09T15:34:36;21.80;91.30
4374;DHT22;2201;51.100;6.814;2022-09-09T15:37:05;21.70;91.40
4374;DHT22;2201;51.100;6.814;2022-09-09T15:39:33;21.50;91.20
4374;DHT22;2201;51.100;6.814;2022-09-09T15:42:01;21.40;92.40
4374;DHT22;2201;51.100;6.814;2022-09-09T15:45:12;21.20;93.90
4374;DHT22;2201;51.100;6.814;2022-09-09T15:48:06;20.90;97.60
4374;DHT22;2201;51.100;6.814;2022-09-09T15:53:19;20.90;98.20
4374;DHT22;2201;51.100;6.814;2022-09-09T15:55:48;21.10;98.20
4374;DHT22;2201;51.100;6.814;2022-09-09T15:58:22;21.30;98.20
4374;DHT22;2201;51.100;6.814;2022-09-09T16:01:12;21.50;98.20
4374;DHT22;2201;51.100;6.814;2022-09-09T16:04:33;21.50;98.20
4374;DHT22;2201;51.100;6.814;2022-09-09T16:07:48;21.50;98.20
4374;DHT22;2201;51.100;6.814;2022-09-09T16:14:01;21.50;98.20
4374;DHT22;2201;51.100;6.814;2022-09-09T16:16:36;21.40;98.20
4374;DHT22;2201;51.100;6.814;2022-09-09T16:19:19;21.30;97.90
4374;DHT22;2201;51.100;6.814;2022-09-09T16:21:50;21.10;97.80
4374;DHT22;2201;51.100;6.814;2022-09-09T16:25:47;21.10;98.20
4374;DHT22;2201;51.100;6.814;2022-09-09T16:27:33;21.10;98.20
4374;DHT22;2201;51.100;6.814;2022-09-09T16:37:33;20.70;98.20
4374;DHT22;2201;51.100;6.814;2022-09-09T16:40:19;20.60;98.20
4374;DHT22;2201;51.100;6.814;2022-09-09T16:43:17;20.50;98.20
4374;DHT22;2201;51.100;6.814;2022-09-09T16:45:43;20.40;98.20
4374;DHT22;2201;51.100;6.814;2022-09-09T16:48:11;20.40;98.20
4374;DHT22;2201;51.100;6.814;2022-09-09T16:50:39;20.40;98.20
4374;DHT22;2201;51.100;6.814;2022-09-09T16:53:26;20.30;98.20
4374;DHT22;2201;51.100;6.814;2022-09-09T16:55:54;20.30;98.20
4374;DHT22;2201;51.100;6.814;2022-09-09T16:58:27;20.30;98.20
4374;DHT22;2201;51.100;6.814;2022-09-09T17:00:58;20.20;98.20
4374;DHT22;2201;51.100;6.814;2022-09-09T17:03:27;20.20;98.20
4374;DHT22;2201;51.100;6.814;2022-09-09T17:05:55;20.10;98.20
4374;DHT22;2201;51.100;6.814;2022-09-09T17:08:24;20.00;98.20
4374;DHT22;2201;51.100;6.814;2022-09-09T17:10:53;20.00;98.20
4374;DHT22;2201;51.100;6.814;2022-09-09T17:13:25;19.90;98.20
4374;DHT22;2201;51.100;6.814;2022-09-09T17:15:53;19.80;98.20
4374;DHT22;2201;51.100;6.814;2022-09-09T17:18:28;19.70;98.20
4374;DHT22;2201;51.100;6.814;2022-09-09T17:21:02;19.70;98.20
4374;DHT22;2201;51.100;6.814;2022-09-09T17:23:30;19.60;98.20
4374;DHT22;2201;51.100;6.814;2022-09-09T17:25:59;19.50;98.20
4374;DHT22;2201;51.100;6.814;2022-09-09T17:28:28;19.50;98.20
4374;DHT22;2201;51.100;6.814;2022-09-09T17:30:57;19.40;98.20
4374;DHT22;2201;51.100;6.814;2022-09-09T17:33:29;19.40;98.20
4374;DHT22;2201;51.100;6.814;2022-09-09T17:35:58;19.30;98.20
4374;DHT22;2201;51.100;6.814;2022-09-09T17:38:28;19.30;98.20
4374;DHT22;2201;51.100;6.814;2022-09-09T17:41:09;19.20;98.20
4374;DHT22;2201;51.100;6.814;2022-09-09T17:43:37;19.20;98.20
4374;DHT22;2201;51.100;6.814;2022-09-09T17:46:06;19.10;98.20
4374;DHT22;2201;51.100;6.814;2022-09-09T17:48:34;19.10;98.20
4374;DHT22;2201;51.100;6.814;2022-09-09T17:51:06;19.00;98.20
4374;DHT22;2201;51.100;6.814;2022-09-09T17:53:37;19.00;98.20
4374;DHT22;2201;51.100;6.814;2022-09-09T17:56:09;18.90;98.20
4374;DHT22;2201;51.100;6.814;2022-09-09T17:58:38;18.90;98.20
4374;DHT22;2201;51.100;6.814;2022-09-09T18:01:07;18.90;98.20
4374;DHT22;2201;51.100;6.814;2022-09-09T18:03:36;18.90;98.20
4374;DHT22;2201;51.100;6.814;2022-09-09T18:06:07;18.80;98.20
4374;DHT22;2201;51.100;6.814;2022-09-09T18:08:35;18.80;98.20
4374;DHT22;2201;51.100;6.814;2022-09-09T18:11:03;18.80;98.20
4374;DHT22;2201;51.100;6.814;2022-09-09T18:13:33;18.90;98.20
4374;DHT22;2201;51.100;6.814;2022-09-09T18:16:05;18.80;98.20
4374;DHT22;2201;51.100;6.814;2022-09-09T18:18:34;18.80;98.20
4374;DHT22;2201;51.100;6.814;2022-09-09T18:21:07;18.80;98.20
4374;DHT22;2201;51.100;6.814;2022-09-09T18:23:35;18.80;98.20
4374;DHT22;2201;51.100;6.814;2022-09-09T18:26:09;18.80;98.20
4374;DHT22;2201;51.100;6.814;2022-09-09T18:29:05;18.80;98.20
4374;DHT22;2201;51.100;6.814;2022-09-09T18:31:37;18.80;98.20
4374;DHT22;2201;51.100;6.814;2022-09-09T18:34:10;18.80;98.20
4374;DHT22;2201;51.100;6.814;2022-09-09T18:36:45;18.80;98.20
4374;DHT22;2201;51.100;6.814;2022-09-09T18:39:26;18.80;98.20
4374;DHT22;2201;51.100;6.814;2022-09-09T18:41:56;18.70;98.20
4374;DHT22;2201;51.100;6.814;2022-09-09T18:44:28;18.70;98.20
4374;DHT22;2201;51.100;6.814;2022-09-09T18:47:00;18.70;98.20
4374;DHT22;2201;51.100;6.814;2022-09-09T18:49:28;18.70;98.20
4374;DHT22;2201;51.100;6.814;2022-09-09T18:52:00;18.60;98.20
4374;DHT22;2201;51.100;6.814;2022-09-09T18:54:30;18.50;98.20
4374;DHT22;2201;51.100;6.814;2022-09-09T18:56:59;18.50;98.20
4374;DHT22;2201;51.100;6.814;2022-09-09T18:59:32;18.40;98.20
4374;DHT22;2201;51.100;6.814;2022-09-09T19:02:06;18.40;98.20
4374;DHT22;2201;51.100;6.814;2022-09-09T19:04:35;18.30;98.20
4374;DHT22;2201;51.100;6.814;2022-09-09T19:07:05;18.30;98.20
4374;DHT22;2201;51.100;6.814;2022-09-09T19:09:33;18.30;98.20
4374;DHT22;2201;51.100;6.814;2022-09-09T19:12:02;18.20;98.20
4374;DHT22;2201;51.100;6.814;2022-09-09T19:14:41;18.10;98.20
4374;DHT22;2201;51.100;6.814;2022-09-09T19:17:09;18.10;98.20
4374;DHT22;2201;51.100;6.814;2022-09-09T19:19:42;18.10;98.20
4374;DHT22;2201;51.100;6.814;2022-09-09T19:22:10;18.00;98.20
4374;DHT22;2201;51.100;6.814;2022-09-09T19:24:39;18.00;98.20
4374;DHT22;2201;51.100;6.814;2022-09-09T19:27:09;18.00;98.20
4374;DHT22;2201;51.100;6.814;2022-09-09T19:29:37;17.90;98.20
4374;DHT22;2201;51.100;6.814;2022-09-09T19:32:09;17.90;98.20
4374;DHT22;2201;51.100;6.814;2022-09-09T19:34:37;17.80;98.20
4374;DHT22;2201;51.100;6.814;2022-09-09T19:37:07;17.80;98.20
4374;DHT22;2201;51.100;6.814;2022-09-09T19:39:36;17.80;98.20
4374;DHT22;2201;51.100;6.814;2022-09-09T19:42:06;17.80;98.20
4374;DHT22;2201;51.100;6.814;2022-09-09T19:44:42;17.80;98.20
4374;DHT22;2201;51.100;6.814;2022-09-09T19:47:13;17.80;98.20
4374;DHT22;2201;51.100;6.814;2022-09-09T19:49:41;17.80;98.20
4374;DHT22;2201;51.100;6.814;2022-09-09T19:52:08;17.70;98.20
4374;DHT22;2201;51.100;6.814;2022-09-09T19:54:36;17.70;98.20
4374;DHT22;2201;51.100;6.814;2022-09-09T19:57:03;17.70;98.20
4374;DHT22;2201;51.100;6.814;2022-09-09T19:59:31;17.70;98.20
4374;DHT22;2201;51.100;6.814;2022-09-09T20:01:58;17.70;98.20
4374;DHT22;2201;51.100;6.814;2022-09-09T20:04:27;17.70;98.20
4374;DHT22;2201;51.100;6.814;2022-09-09T20:06:54;17.60;98.20
4374;DHT22;2201;51.100;6.814;2022-09-09T20:09:21;17.60;98.20
4374;DHT22;2201;51.100;6.814;2022-09-09T20:11:50;17.60;98.20
4374;DHT22;2201;51.100;6.814;2022-09-09T20:14:17;17.60;98.20
4374;DHT22;2201;51.100;6.814;2022-09-09T20:16:44;17.60;98.20
4374;DHT22;2201;51.100;6.814;2022-09-09T20:19:13;17.60;98.20
4374;DHT22;2201;51.100;6.814;2022-09-09T20:21:42;17.60;98.20
4374;DHT22;2201;51.100;6.814;2022-09-09T20:24:12;17.50;98.20
4374;DHT22;2201;51.100;6.814;2022-09-09T20:26:39;17.50;98.20
4374;DHT22;2201;51.100;6.814;2022-09-09T20:29:09;17.50;98.20
4374;DHT22;2201;51.100;6.814;2022-09-09T20:31:40;17.50;98.20
4374;DHT22;2201;51.100;6.814;2022-09-09T20:34:15;17.60;98.20
4374;DHT22;2201;51.100;6.814;2022-09-09T20:36:45;17.60;98.20
4374;DHT22;2201;51.100;6.814;2022-09-09T20:39:14;17.60;98.20
4374;DHT22;2201;51.100;6.814;2022-09-09T20:41:43;17.60;98.20
4374;DHT22;2201;51.100;6.814;2022-09-09T20:44:12;17.60;98.20
4374;DHT22;2201;51.100;6.814;2022-09-09T20:49:27;17.60;98.20
4374;DHT22;2201;51.100;6.814;2022-09-09T20:51:56;17.60;98.20
4374;DHT22;2201;51.100;6.814;2022-09-09T20:54:28;17.60;98.20
4374;DHT22;2201;51.100;6.814;2022-09-09T20:56:55;17.60;98.20
4374;DHT22;2201;51.100;6.814;2022-09-09T20:59:25;17.60;98.20
4374;DHT22;2201;51.100;6.814;2022-09-09T21:01:52;17.60;98.20
4374;DHT22;2201;51.100;6.814;2022-09-09T21:04:22;17.60;98.20
4374;DHT22;2201;51.100;6.814;2022-09-09T21:06:51;17.60;98.20
4374;DHT22;2201;51.100;6.814;2022-09-09T21:09:19;17.60;98.20
4374;DHT22;2201;51.100;6.814;2022-09-09T21:11:47;17.60;98.20
4374;DHT22;2201;51.100;6.814;2022-09-09T21:14:14;17.60;98.20
4374;DHT22;2201;51.100;6.814;2022-09-09T21:16:41;17.60;98.20